Time;durP1;ratioP1;P1;durP2;ratioP2;P2;SDS_P1;SDS_P2;PMS_P1;PMS_P2;Temp;Humidity;BMP_temperature;BMP_pressure;BME280_temperature;BME280_humidity;BME280_pressure;Samples;Min_cycle;Max_cycle;Signal;HPM_P1;HPM_P2
2023/07/23 00:01:55;;;;;;;0.10;0.10;;;;;;;17.98;72.39;100935.88;5058733;28;20048;-78
2023/07/23 00:04:21;;;;;;;0.20;0.20;;;;;;;17.98;72.45;100930.53;5060114;28;20032;-83
2023/07/23 00:06:47;;;;;;;0.20;0.20;;;;;;;17.98;72.53;100931.41;5057303;28;20025;-82
2023/07/23 00:09:13;;;;;;;0.32;0.32;;;;;;;17.97;72.45;100924.31;5056866;28;20100;-84
2023/07/23 00:11:40;;;;;;;0.75;0.75;;;;;;;17.98;72.12;100931.41;5057732;28;20513;-83
2023/07/23 00:14:06;;;;;;;0.10;0.10;;;;;;;17.95;72.39;100927.03;5057354;28;20056;-82
2023/07/23 00:16:32;;;;;;;0.00;0.00;;;;;;;17.95;72.37;100916.31;5057623;28;20076;-83
2023/07/23 00:18:58;;;;;;;0.10;0.10;;;;;;;17.94;72.43;100908.38;5058028;28;20025;-83
2023/07/23 00:21:24;;;;;;;0.10;0.10;;;;;;;17.95;72.57;100905.59;5058057;28;20025;-83
2023/07/23 00:23:51;;;;;;;1.13;1.13;;;;;;;17.97;72.64;100902.88;5057482;28;20029;-83
2023/07/23 00:26:17;;;;;;;0.40;0.40;;;;;;;17.98;72.77;100904.59;5070092;28;20093;-83
2023/07/23 00:28:43;;;;;;;0.10;0.10;;;;;;;17.99;72.69;100898.28;5072728;28;20074;-84
2023/07/23 00:31:09;;;;;;;0.20;0.20;;;;;;;18.00;72.60;100894.66;5057399;28;20110;-83
2023/07/23 00:33:35;;;;;;;0.10;0.10;;;;;;;18.01;72.80;100895.53;5056313;28;20099;-83
2023/07/23 00:36:01;;;;;;;0.05;0.05;;;;;;;18.03;72.76;100890.94;5057709;28;20029;-83
2023/07/23 00:38:28;;;;;;;5.10;0.98;;;;;;;18.03;72.95;100894.50;5065417;28;20021;-82
2023/07/23 00:40:56;;;;;;;0.10;0.10;;;;;;;18.03;72.67;100897.19;5057978;28;20048;-83
2023/07/23 00:43:22;;;;;;;0.10;0.10;;;;;;;17.97;72.72;100892.16;5057872;28;20024;-83
2023/07/23 00:45:49;;;;;;;0.20;0.20;;;;;;;18.04;72.78;100892.69;5061713;28;20018;-83
2023/07/23 00:48:15;;;;;;;0.25;0.25;;;;;;;18.04;72.63;100885.50;5060869;28;20025;-83
2023/07/23 00:50:42;;;;;;;0.20;0.20;;;;;;;18.06;72.47;100885.44;5062875;28;20036;-84
2023/07/23 00:53:08;;;;;;;0.00;0.00;;;;;;;18.04;72.91;100877.47;5055857;28;20029;-83
2023/07/23 00:55:37;;;;;;;0.10;0.10;;;;;;;18.07;72.50;100881.81;5065350;28;20032;-82
2023/07/23 00:58:03;;;;;;;0.08;0.08;;;;;;;18.08;72.64;100867.44;5066637;28;20075;-82
2023/07/23 01:00:29;;;;;;;0.32;0.32;;;;;;;18.11;72.62;100861.94;5077822;28;20031;-82
2023/07/23 01:02:56;;;;;;;0.05;0.05;;;;;;;18.08;72.69;100857.59;5070664;28;20075;-82
2023/07/23 01:05:23;;;;;;;0.22;0.22;;;;;;;18.08;72.48;100857.59;5056830;28;20091;-81
2023/07/23 01:07:50;;;;;;;0.20;0.20;;;;;;;18.07;72.72;100855.88;5060350;28;20226;-82
2023/07/23 01:10:19;;;;;;;0.70;0.70;;;;;;;18.10;72.49;100850.34;5060078;28;20036;-82
2023/07/23 01:12:45;;;;;;;0.10;0.10;;;;;;;18.09;72.39;100845.94;5059120;28;20029;-80
2023/07/23 01:15:12;;;;;;;0.70;0.70;;;;;;;18.11;72.20;100841.34;5059129;28;20033;-80
2023/07/23 01:17:41;;;;;;;0.10;0.10;;;;;;;18.11;72.31;100844.03;5058523;28;20033;-81
2023/07/23 01:20:08;;;;;;;0.20;0.20;;;;;;;18.12;72.38;100836.88;5059659;28;20051;-80
2023/07/23 01:22:36;;;;;;;0.85;0.85;;;;;;;18.13;72.22;100837.72;5058476;28;20044;-80
2023/07/23 01:25:04;;;;;;;0.35;0.35;;;;;;;18.14;72.02;100824.22;5059370;28;20036;-80
2023/07/23 01:27:31;;;;;;;0.98;0.90;;;;;;;18.14;72.11;100826.91;5058235;28;20478;-80
2023/07/23 01:29:57;;;;;;;0.08;0.08;;;;;;;18.15;72.07;100819.75;5058344;28;20060;-80
2023/07/23 01:32:23;;;;;;;0.03;0.03;;;;;;;18.07;72.50;100828.19;5056272;28;20032;-79
2023/07/23 01:34:50;;;;;;;0.43;0.43;;;;;;;18.01;72.70;100813.28;5050302;28;20033;-80
2023/07/23 01:37:16;;;;;;;0.00;0.00;;;;;;;18.02;72.57;100809.66;5060026;28;20417;-78
2023/07/23 01:39:43;;;;;;;0.00;0.00;;;;;;;18.01;72.81;100807.94;5061371;28;20025;-77
2023/07/23 01:42:11;;;;;;;5.53;0.85;;;;;;;18.03;72.62;100807.84;5061418;28;20124;-77
2023/07/23 01:44:37;;;;;;;0.30;0.30;;;;;;;18.01;72.76;100805.25;5060383;28;20029;-79
2023/07/23 01:47:03;;;;;;;0.73;0.57;;;;;;;18.02;72.81;100798.06;5063344;28;20466;-79
2023/07/23 01:49:30;;;;;;;0.10;0.10;;;;;;;18.03;72.73;100800.69;5068064;28;20075;-79
2023/07/23 01:51:56;;;;;;;0.10;0.10;;;;;;;18.06;72.69;100797.81;5060551;28;20028;-78
2023/07/23 01:54:22;;;;;;;0.47;0.47;;;;;;;18.07;72.71;100790.66;5060922;28;20025;-78
2023/07/23 01:56:48;;;;;;;0.10;0.10;;;;;;;18.07;72.84;100785.31;5063060;28;20063;-77
2023/07/23 01:59:14;;;;;;;0.08;0.08;;;;;;;18.08;72.68;100778.97;5062616;28;20049;-78
2023/07/23 02:01:40;;;;;;;0.95;0.57;;;;;;;18.07;72.63;100775.44;5060945;28;20501;-79
2023/07/23 02:04:07;;;;;;;0.52;0.52;;;;;;;18.06;72.93;100770.16;5061444;28;20147;-80
2023/07/23 02:06:35;;;;;;;0.00;0.00;;;;;;;18.07;72.76;100774.59;5069640;28;20028;-79
2023/07/23 02:09:01;;;;;;;0.10;0.10;;;;;;;18.06;72.88;100767.47;5069408;28;20104;-78
2023/07/23 02:11:27;;;;;;;0.08;0.08;;;;;;;18.07;72.86;100764.72;5060647;28;20158;-79
2023/07/23 02:13:53;;;;;;;0.00;0.00;;;;;;;18.09;72.67;100768.19;5059263;28;20111;-78
2023/07/23 02:16:20;;;;;;;0.00;0.00;;;;;;;18.09;72.67;100761.94;5064613;28;20069;-78
2023/07/23 02:18:46;;;;;;;0.10;0.10;;;;;;;18.09;72.57;100752.09;5073364;28;20025;-78
2023/07/23 02:21:12;;;;;;;0.10;0.10;;;;;;;18.10;72.61;100748.44;5073512;28;20037;-77
2023/07/23 02:23:39;;;;;;;0.30;0.30;;;;;;;18.11;72.78;100742.13;5064233;28;20044;-77
2023/07/23 02:26:05;;;;;;;0.10;0.10;;;;;;;18.14;72.67;100746.47;5065050;28;20021;-78
2023/07/23 02:28:31;;;;;;;0.10;0.10;;;;;;;18.15;72.78;100733.94;5072980;28;20041;-78
2023/07/23 02:30:59;;;;;;;0.73;0.73;;;;;;;18.13;72.55;100730.47;5073605;28;20029;-78
2023/07/23 02:33:26;;;;;;;0.00;0.00;;;;;;;18.13;72.54;100733.16;5069452;28;20477;-77
2023/07/23 02:35:52;;;;;;;0.10;0.10;;;;;;;18.11;72.77;100728.75;5078878;28;20041;-78
2023/07/23 02:38:18;;;;;;;0.00;0.00;;;;;;;18.10;72.65;100724.31;5062986;28;20108;-79
2023/07/23 02:40:44;;;;;;;0.10;0.10;;;;;;;18.10;72.67;100723.47;5068067;28;20032;-78
2023/07/23 02:43:12;;;;;;;0.10;0.10;;;;;;;18.09;72.55;100719.94;5062409;28;20486;-79
2023/07/23 02:45:39;;;;;;;0.20;0.20;;;;;;;18.11;72.68;100712.66;5078813;28;20023;-78
2023/07/23 02:48:07;;;;;;;0.73;0.52;;;;;;;18.13;72.67;100709.03;5059414;28;20032;-78
2023/07/23 02:50:33;;;;;;;0.10;0.10;;;;;;;18.10;72.79;100705.53;5059313;28;20035;-78
2023/07/23 02:52:59;;;;;;;0.00;0.00;;;;;;;18.10;72.52;100702.88;5058858;28;20641;-77
2023/07/23 02:55:25;;;;;;;2.95;1.02;;;;;;;18.09;72.82;100698.47;5058707;28;20033;-79
2023/07/23 02:57:52;;;;;;;1.95;0.73;;;;;;;18.08;72.67;100691.38;5057051;28;20025;-79
2023/07/23 03:00:19;;;;;;;0.10;0.10;;;;;;;18.06;72.66;100682.53;5057764;28;20021;-79
2023/07/23 03:02:47;;;;;;;0.00;0.00;;;;;;;18.05;72.66;100683.50;5057539;28;20028;-79
2023/07/23 03:05:13;;;;;;;0.10;0.10;;;;;;;18.08;72.59;100685.13;5060870;28;20512;-79
2023/07/23 03:07:39;;;;;;;0.00;0.00;;;;;;;18.06;72.56;100677.19;5077588;28;20020;-80
2023/07/23 03:10:05;;;;;;;0.00;0.00;;;;;;;18.06;72.80;100682.53;5067640;28;20050;-82
2023/07/23 03:12:32;;;;;;;0.10;0.10;;;;;;;18.05;72.96;100675.44;5058214;28;20032;-79
2023/07/23 03:14:59;;;;;;;0.00;0.00;;;;;;;18.06;72.79;100670.97;5058353;28;20037;-79
2023/07/23 03:17:25;;;;;;;0.00;0.00;;;;;;;18.05;72.85;100670.09;5058273;28;20045;-80
2023/07/23 03:19:52;;;;;;;0.10;0.10;;;;;;;18.04;72.79;100667.50;5057439;28;20025;-80
2023/07/23 03:22:18;;;;;;;0.00;0.00;;;;;;;18.04;72.59;100662.13;5057818;28;20029;-81
2023/07/23 03:24:45;;;;;;;3.00;0.57;;;;;;;18.01;72.59;100665.84;5059898;28;20036;-79
2023/07/23 03:27:11;;;;;;;0.20;0.20;;;;;;;17.97;72.62;100658.94;5055830;28;20029;-80
2023/07/23 03:29:37;;;;;;;0.10;0.10;;;;;;;17.97;72.59;100650.88;5063421;28;20093;-80
2023/07/23 03:32:04;;;;;;;0.05;0.05;;;;;;;17.97;72.46;100650.88;5058254;28;20075;-80
2023/07/23 03:34:31;;;;;;;0.20;0.20;;;;;;;17.95;72.74;100652.78;5057472;28;20036;-80
2023/07/23 03:36:57;;;;;;;0.00;0.00;;;;;;;17.94;72.59;100648.34;5058205;28;20029;-80
2023/07/23 03:39:23;;;;;;;0.00;0.00;;;;;;;17.94;72.47;100646.56;5061190;28;20043;-80
2023/07/23 03:41:50;;;;;;;1.55;1.45;;;;;;;17.94;72.58;100643.00;5060633;28;20060;-81
2023/07/23 03:44:16;;;;;;;0.05;0.05;;;;;;;17.93;72.52;100639.44;5059645;28;20025;-80
2023/07/23 03:46:44;;;;;;;0.32;0.32;;;;;;;17.93;72.40;100638.53;5060779;28;20088;-81
2023/07/23 03:49:11;;;;;;;0.10;0.10;;;;;;;17.91;72.49;100635.97;5060017;28;20033;-80
2023/07/23 03:51:37;;;;;;;0.30;0.30;;;;;;;17.91;72.43;100629.75;5059909;28;20025;-81
2023/07/23 03:54:03;;;;;;;0.10;0.10;;;;;;;17.84;72.60;100622.97;5059124;28;20068;-81
2023/07/23 03:56:30;;;;;;;0.10;0.10;;;;;;;17.84;72.59;100628.34;5059736;28;20036;-81
2023/07/23 03:58:56;;;;;;;0.10;0.10;;;;;;;17.83;72.45;100627.47;5058762;28;20036;-80
2023/07/23 04:01:22;;;;;;;0.00;0.00;;;;;;;17.81;72.67;100624.00;5058547;28;20024;-80
2023/07/23 04:03:48;;;;;;;0.20;0.20;;;;;;;17.83;72.53;100630.16;5057114;28;20029;-81
2023/07/23 04:06:14;;;;;;;0.40;0.40;;;;;;;17.86;72.61;100626.44;5057236;28;20084;-79
2023/07/23 04:08:40;;;;;;;0.30;0.30;;;;;;;17.84;72.66;100622.97;5053550;28;20029;-79
2023/07/23 04:11:07;;;;;;;0.22;0.22;;;;;;;17.83;72.70;100618.56;5053986;28;20051;-80
2023/07/23 04:13:34;;;;;;;0.28;0.28;;;;;;;17.83;72.61;100621.25;5062373;28;20051;-80
2023/07/23 04:16:06;;;;;;;0.10;0.10;;;;;;;17.83;72.67;100622.13;5078549;28;20501;-80
2023/07/23 04:18:47;;;;;;;0.20;0.20;;;;;;;17.91;72.43;100619.88;5081242;28;20040;-79
2023/07/23 04:21:14;;;;;;;0.20;0.20;;;;;;;17.83;72.27;100621.25;5079470;28;20037;-78
2023/07/23 04:23:40;;;;;;;0.03;0.03;;;;;;;17.89;72.28;100621.75;5064738;28;20394;-77
2023/07/23 04:26:06;;;;;;;0.10;0.10;;;;;;;17.93;72.15;100614.41;5069602;28;20027;-79
2023/07/23 04:28:32;;;;;;;1.27;0.47;;;;;;;17.94;71.91;100613.50;5068123;28;20029;-79
2023/07/23 04:30:58;;;;;;;0.63;0.63;;;;;;;17.95;71.89;100616.09;5061565;28;20064;-80
2023/07/23 04:33:24;;;;;;;0.20;0.20;;;;;;;17.96;71.75;100611.63;5057951;28;20051;-80
2023/07/23 04:35:50;;;;;;;0.95;0.68;;;;;;;17.95;71.65;100612.56;5059892;28;20517;-80
2023/07/23 04:38:16;;;;;;;0.43;0.43;;;;;;;17.96;71.28;100600.91;5058737;28;20033;-80
2023/07/23 04:40:43;;;;;;;0.15;0.15;;;;;;;17.99;71.30;100606.06;5060765;28;20051;-79
2023/07/23 04:43:09;;;;;;;0.10;0.10;;;;;;;18.06;70.99;100612.84;5062255;28;20107;-79
2023/07/23 04:45:38;;;;;;;0.75;0.75;;;;;;;18.11;70.96;100608.09;5062408;28;20048;-79
2023/07/23 04:48:05;;;;;;;0.40;0.40;;;;;;;18.09;70.77;100612.69;5061789;28;20036;-79
2023/07/23 04:50:31;;;;;;;0.10;0.10;;;;;;;18.11;70.70;100608.09;5069729;28;20120;-80
2023/07/23 04:52:57;;;;;;;0.55;0.55;;;;;;;18.14;70.57;100611.56;5067766;28;20063;-79
2023/07/23 04:55:24;;;;;;;1.75;1.17;;;;;;;18.18;70.70;100605.06;5060261;28;20334;-79
2023/07/23 04:57:50;;;;;;;0.55;0.55;;;;;;;18.16;70.44;100612.34;5061993;28;20072;-80
2023/07/23 05:00:17;;;;;;;0.10;0.10;;;;;;;18.19;70.54;100606.81;5061704;28;20013;-79
2023/07/23 05:02:43;;;;;;;0.00;0.00;;;;;;;18.15;70.73;100606.09;5061142;28;20029;-79
2023/07/23 05:05:09;;;;;;;0.20;0.20;;;;;;;18.14;70.56;100599.00;5062097;28;20039;-79
2023/07/23 05:07:35;;;;;;;0.10;0.10;;;;;;;18.16;70.82;100604.31;5061497;28;20021;-80
2023/07/23 05:10:02;;;;;;;0.32;0.32;;;;;;;18.16;70.87;100615.03;5062274;28;20669;-80
2023/07/23 05:12:28;;;;;;;10.02;3.80;;;;;;;18.19;70.94;100612.16;5066831;28;20021;-80
2023/07/23 05:15:10;;;;;;;0.50;0.50;;;;;;;18.25;70.62;100615.34;5060904;28;20103;-80
2023/07/23 05:17:37;;;;;;;0.47;0.47;;;;;;;18.15;70.30;100614.16;5061818;28;20032;-80
2023/07/23 05:20:06;;;;;;;0.35;0.35;;;;;;;18.11;70.29;100609.91;5062835;28;20063;-77
2023/07/23 05:22:32;;;;;;;0.10;0.10;;;;;;;18.15;70.48;100615.97;5063274;28;20021;-78
2023/07/23 05:24:58;;;;;;;0.20;0.20;;;;;;;18.13;70.50;100620.53;5064257;28;20124;-78
2023/07/23 05:27:26;;;;;;;0.50;0.50;;;;;;;18.10;70.63;100619.75;5064423;28;20036;-78
2023/07/23 05:29:52;;;;;;;0.10;0.10;;;;;;;18.04;70.30;100617.41;5065662;28;20043;-79
2023/07/23 05:32:18;;;;;;;0.10;0.10;;;;;;;17.90;70.65;100619.97;5065181;28;20028;-79
2023/07/23 05:34:44;;;;;;;3.58;1.88;;;;;;;17.89;71.05;100618.22;5065915;28;20530;-78
2023/07/23 05:37:10;;;;;;;0.00;0.00;;;;;;;17.94;71.11;100618.88;5065412;28;20029;-78
2023/07/23 05:39:36;;;;;;;0.30;0.30;;;;;;;18.02;70.78;100622.00;5070964;28;20021;-79
2023/07/23 05:42:02;;;;;;;0.40;0.40;;;;;;;18.03;71.02;100622.84;5076910;28;20033;-78
2023/07/23 05:44:28;;;;;;;0.10;0.10;;;;;;;17.93;71.39;100622.47;5078653;28;20029;-78
2023/07/23 05:46:54;;;;;;;0.57;0.57;;;;;;;17.94;71.54;100621.56;5069822;28;20033;-77
2023/07/23 05:49:20;;;;;;;0.10;0.10;;;;;;;17.89;71.96;100616.41;5066806;28;20063;-78
2023/07/23 05:51:47;;;;;;;0.73;0.73;;;;;;;17.85;72.35;100620.19;5064586;28;20103;-78
2023/07/23 05:54:13;;;;;;;0.10;0.10;;;;;;;17.74;73.17;100611.88;5067694;28;20059;-79
2023/07/23 05:56:39;;;;;;;0.43;0.43;;;;;;;17.71;73.11;100618.28;5070395;28;20029;-79
2023/07/23 05:59:06;;;;;;;0.38;0.38;;;;;;;17.68;73.72;100607.72;5083338;28;20366;-79
2023/07/23 06:01:32;;;;;;;0.20;0.20;;;;;;;17.77;73.88;100609.06;5080040;28;20115;-78
2023/07/23 06:03:58;;;;;;;2.28;0.45;;;;;;;17.75;74.13;100611.78;5067221;28;20040;-78
2023/07/23 06:06:24;;;;;;;0.10;0.10;;;;;;;17.66;74.19;100609.63;5066874;28;20033;-77
2023/07/23 06:08:50;;;;;;;0.20;0.20;;;;;;;17.69;74.91;100608.59;5065784;28;20107;-79
2023/07/23 06:11:17;;;;;;;0.17;0.17;;;;;;;17.70;74.27;100613.00;5064933;28;20029;-78
2023/07/23 06:13:43;;;;;;;0.10;0.10;;;;;;;17.65;74.18;100613.25;5064456;28;20043;-78
2023/07/23 06:16:09;;;;;;;0.60;0.60;;;;;;;17.65;74.08;100607.03;5070541;28;20024;-79
2023/07/23 06:18:35;;;;;;;0.40;0.40;;;;;;;17.62;74.02;100608.06;5066234;28;20070;-79
2023/07/23 06:21:03;;;;;;;0.20;0.20;;;;;;;17.60;74.35;100604.59;5066905;28;20029;-80
2023/07/23 06:23:30;;;;;;;1.33;1.23;;;;;;;17.64;74.36;100606.16;5070518;28;20021;-80
2023/07/23 06:25:57;;;;;;;0.00;0.00;;;;;;;17.63;74.59;100609.78;5065488;28;20044;-79
2023/07/23 06:31:01;;;;;;;0.50;0.50;;;;;;;17.63;74.61;100604.41;5071914;28;20056;-80
2023/07/23 06:33:28;;;;;;;0.10;0.10;;;;;;;17.72;74.49;100609.28;5083575;28;20065;-80
2023/07/23 06:35:54;;;;;;;2.90;1.00;;;;;;;17.65;74.12;100610.56;5100217;28;20115;-79
2023/07/23 06:38:20;;;;;;;0.93;0.30;;;;;;;17.69;73.64;100609.44;5097515;28;20028;-80
2023/07/23 06:40:48;;;;;;;2.65;1.17;;;;;;;17.72;73.76;100609.28;5082890;28;20060;-79
2023/07/23 06:43:16;;;;;;;1.65;0.90;;;;;;;17.78;73.54;100613.44;5090301;28;20031;-78
2023/07/23 06:45:43;;;;;;;0.32;0.32;;;;;;;17.78;73.57;100614.31;5092138;28;20028;-77
2023/07/23 06:48:10;;;;;;;0.30;0.30;;;;;;;17.86;73.60;100613.06;5091197;28;20468;-77
2023/07/23 06:50:37;;;;;;;0.52;0.52;;;;;;;17.91;73.66;100613.66;5083431;28;20044;-80
2023/07/23 06:53:03;;;;;;;0.10;0.10;;;;;;;17.93;73.65;100601.03;5083058;28;20024;-78
2023/07/23 06:55:29;;;;;;;0.38;0.38;;;;;;;18.06;73.37;100610.16;5084286;28;20024;-79
2023/07/23 06:57:55;;;;;;;0.90;0.40;;;;;;;18.06;73.35;100610.16;5081894;28;20086;-79
2023/07/23 07:00:22;;;;;;;0.90;0.75;;;;;;;18.06;73.20;100618.19;5081574;28;20031;-80
2023/07/23 07:02:48;;;;;;;0.22;0.22;;;;;;;18.06;73.07;100617.34;5080839;28;20029;-80
2023/07/23 07:05:14;;;;;;;0.40;0.32;;;;;;;18.04;73.32;100613.88;5084815;28;20066;-80
2023/07/23 07:07:40;;;;;;;0.10;0.10;;;;;;;17.91;73.26;100619.03;5102416;28;20063;-80
2023/07/23 07:10:07;;;;;;;0.10;0.10;;;;;;;17.83;72.89;100626.59;5102471;28;20028;-79
2023/07/23 07:12:34;;;;;;;0.73;0.73;;;;;;;17.86;73.28;100613.91;5087328;28;20070;-80
2023/07/23 07:15:00;;;;;;;0.20;0.20;;;;;;;17.94;73.03;100613.50;5102100;28;20028;-80
2023/07/23 07:17:26;;;;;;;2.03;0.93;;;;;;;17.93;73.15;100609.06;5083352;28;20416;-80
2023/07/23 07:19:52;;;;;;;0.03;0.03;;;;;;;17.97;73.07;100602.63;5083196;28;20074;-80
2023/07/23 07:22:18;;;;;;;0.45;0.30;;;;;;;17.93;72.44;100606.38;5082946;28;20032;-80
2023/07/23 07:24:44;;;;;;;0.10;0.10;;;;;;;17.99;72.59;100606.06;5083889;28;20040;-80
2023/07/23 07:27:10;;;;;;;0.40;0.40;;;;;;;18.06;72.53;100607.47;5100130;28;20085;-80
2023/07/23 07:29:40;;;;;;;0.30;0.30;;;;;;;18.09;72.18;100614.47;5102098;28;20036;-78
2023/07/23 07:32:07;;;;;;;0.08;0.08;;;;;;;18.08;72.03;100610.94;5100347;28;20091;-81
2023/07/23 07:34:33;;;;;;;0.10;0.10;;;;;;;18.14;71.61;100598.16;5099817;28;20123;-78
2023/07/23 07:37:00;;;;;;;0.10;0.10;;;;;;;18.19;71.73;100596.06;5083896;28;20071;-78
2023/07/23 07:39:26;;;;;;;0.80;0.80;;;;;;;18.24;71.55;100588.63;5104609;28;20055;-78
2023/07/23 07:41:54;;;;;;;0.10;0.10;;;;;;;18.28;70.96;100590.22;5102861;28;20032;-79
2023/07/23 07:44:20;;;;;;;0.60;0.60;;;;;;;18.39;70.97;100598.50;5103152;28;20020;-78
2023/07/23 07:46:46;;;;;;;0.20;0.20;;;;;;;18.42;70.43;100594.78;5086870;28;20035;-78
2023/07/23 07:49:13;;;;;;;0.10;0.10;;;;;;;18.46;70.28;100587.44;5082225;28;20026;-79
2023/07/23 07:51:43;;;;;;;0.10;0.10;;;;;;;18.49;70.71;100595.28;5081246;28;20119;-78
2023/07/23 07:54:09;;;;;;;0.75;0.75;;;;;;;18.46;70.25;100592.78;5083055;28;20054;-79
2023/07/23 07:56:36;;;;;;;0.10;0.10;;;;;;;18.50;70.00;100599.72;5083662;28;20025;-79
2023/07/23 07:59:04;;;;;;;0.17;0.17;;;;;;;18.53;69.79;100589.66;5083087;28;20080;-79
2023/07/23 08:01:30;;;;;;;0.10;0.10;;;;;;;18.54;70.00;100601.25;5085595;28;20086;-79
2023/07/23 08:03:57;;;;;;;0.10;0.10;;;;;;;18.48;70.08;100596.25;5101103;28;20099;-77
2023/07/23 08:06:24;;;;;;;0.75;0.43;;;;;;;18.58;70.04;100592.94;5087549;28;20083;-79
2023/07/23 08:08:54;;;;;;;0.10;0.10;;;;;;;18.58;69.93;100597.47;5103361;28;20020;-79
2023/07/23 08:11:21;;;;;;;0.10;0.10;;;;;;;18.62;70.05;100585.59;5103263;28;20035;-77
2023/07/23 08:13:48;;;;;;;0.30;0.30;;;;;;;18.63;70.07;100592.69;5087624;28;20039;-79
2023/07/23 08:16:16;;;;;;;0.43;0.43;;;;;;;18.69;69.73;100589.66;5086212;28;20036;-79
2023/07/23 08:18:44;;;;;;;0.30;0.30;;;;;;;18.73;70.01;100575.09;5102741;28;20024;-79
2023/07/23 08:21:11;;;;;;;0.45;0.45;;;;;;;18.81;69.89;100587.19;5108585;28;20057;-79
2023/07/23 08:23:37;;;;;;;0.90;0.90;;;;;;;18.84;69.67;100581.63;5106808;28;20416;-79
2023/07/23 08:26:06;;;;;;;0.32;0.32;;;;;;;18.82;69.47;100583.56;5108002;28;20028;-78
2023/07/23 08:28:38;;;;;;;0.40;0.40;;;;;;;18.91;69.35;100585.72;5109131;28;20016;-79
2023/07/23 08:31:07;;;;;;;0.57;0.57;;;;;;;18.86;69.33;100585.97;5107095;28;20424;-80
2023/07/23 08:33:33;;;;;;;0.73;0.73;;;;;;;18.81;69.33;100582.69;5104871;28;20088;-80
2023/07/23 08:36:00;;;;;;;0.50;0.50;;;;;;;18.88;69.56;100588.56;5097876;28;20032;-80
2023/07/23 08:38:28;;;;;;;0.25;0.25;;;;;;;18.95;69.20;100586.41;5084241;28;20036;-80
2023/07/23 08:41:00;;;;;;;0.25;0.20;;;;;;;18.91;69.25;100583.03;5086082;28;20040;-80
2023/07/23 08:43:52;;;;;;;0.13;0.13;;;;;;;19.11;68.90;100586.38;5090338;28;20088;-80
2023/07/23 08:51:41;;;;;;;0.20;0.20;;;;;;;19.04;69.37;100580.47;5123087;27;1179794;-81
2023/07/23 08:54:08;;;;;;;0.00;0.00;;;;;;;19.04;68.76;100589.41;5120752;28;20032;-80
2023/07/23 08:56:36;;;;;;;0.45;0.45;;;;;;;19.13;68.95;100587.13;5120336;28;20042;-80
2023/07/23 08:59:04;;;;;;;0.20;0.20;;;;;;;19.13;68.99;100589.81;5111164;28;20032;-80
2023/07/23 09:01:33;;;;;;;0.20;0.20;;;;;;;19.23;68.91;100591.00;5117781;28;20039;-78
2023/07/23 09:04:00;;;;;;;0.10;0.10;;;;;;;19.21;68.81;100584.84;5116829;28;20481;-79
2023/07/23 09:06:30;;;;;;;0.45;0.45;;;;;;;19.20;69.20;100594.75;5119965;28;20028;-79
2023/07/23 09:09:13;;;;;;;0.20;0.20;;;;;;;19.28;68.87;100578.16;5118740;28;20031;-80
2023/07/23 09:11:39;;;;;;;0.30;0.30;;;;;;;19.29;69.13;100585.25;5124530;28;20042;-79
2023/07/23 09:14:09;;;;;;;0.10;0.10;;;;;;;19.38;69.26;100581.16;5111576;28;20058;-80
2023/07/23 09:16:40;;;;;;;0.10;0.10;;;;;;;19.54;68.91;100599.88;5112160;28;20035;-80
2023/07/23 09:19:09;;;;;;;0.40;0.40;;;;;;;19.54;68.79;100597.19;5112591;28;20468;-81
2023/07/23 09:21:40;;;;;;;0.03;0.03;;;;;;;19.59;68.82;100605.84;5121041;28;20052;-81
2023/07/23 09:24:07;;;;;;;0.30;0.30;;;;;;;19.57;69.48;100602.38;5112644;28;20093;-81
2023/07/23 09:26:36;;;;;;;0.10;0.10;;;;;;;19.54;69.94;100607.94;5112363;28;20024;-81
2023/07/23 09:29:08;;;;;;;0.10;0.10;;;;;;;19.62;69.65;100602.94;5111941;28;20157;-80
2023/07/23 09:31:36;;;;;;;0.20;0.20;;;;;;;19.59;70.03;100599.56;5109540;28;20036;-78
2023/07/23 09:34:03;;;;;;;0.40;0.40;;;;;;;19.32;70.98;100601.19;5113470;28;20034;-79
2023/07/23 09:36:30;;;;;;;0.20;0.20;;;;;;;19.42;71.06;100604.16;5119977;28;20051;-79
2023/07/23 09:39:00;;;;;;;0.10;0.10;;;;;;;19.37;71.59;100612.50;5120389;28;20028;-80
2023/07/23 09:41:30;;;;;;;0.10;0.10;;;;;;;19.28;72.05;100602.31;5121753;28;20384;-79
2023/07/23 09:43:58;;;;;;;0.10;0.10;;;;;;;19.14;72.20;100607.66;5120678;28;20024;-79
2023/07/23 09:46:26;;;;;;;0.38;0.38;;;;;;;19.19;72.21;100602.88;5110873;28;20027;-80
2023/07/23 09:48:52;;;;;;;0.10;0.10;;;;;;;19.07;72.59;100620.59;5120711;28;20023;-80
2023/07/23 09:51:18;;;;;;;0.10;0.10;;;;;;;18.94;73.46;100604.34;5121099;28;20032;-79
2023/07/23 09:53:48;;;;;;;0.10;0.10;;;;;;;19.00;73.29;100609.34;5111621;28;20049;-79
2023/07/23 09:56:15;;;;;;;0.10;0.10;;;;;;;18.88;73.74;100610.06;5121290;28;20028;-79
2023/07/23 09:58:44;;;;;;;0.05;0.05;;;;;;;18.94;73.99;100603.47;5117060;28;20039;-80
2023/07/23 10:01:11;;;;;;;0.08;0.08;;;;;;;18.87;74.50;100611.84;5103106;28;20497;-79
2023/07/23 10:03:38;;;;;;;0.30;0.30;;;;;;;18.91;74.45;100607.19;5096305;28;20183;-80
2023/07/23 10:06:10;;;;;;;0.10;0.10;;;;;;;18.97;74.40;100606.84;5093822;28;20452;-80
2023/07/23 10:08:40;;;;;;;1.23;1.23;;;;;;;19.01;74.23;100620.94;5105704;28;20032;-80
2023/07/23 10:11:07;;;;;;;0.95;0.57;;;;;;;19.11;73.83;100619.44;5099218;28;20031;-79
2023/07/23 10:13:33;;;;;;;0.08;0.08;;;;;;;19.25;73.87;100618.63;5102015;28;20413;-81
2023/07/23 10:16:02;;;;;;;0.10;0.10;;;;;;;19.36;73.81;100616.13;5104210;28;20042;-79
2023/07/23 10:18:28;;;;;;;0.10;0.10;;;;;;;19.51;73.72;100608.97;5112016;28;20035;-80
2023/07/23 10:20:56;;;;;;;3.20;0.73;;;;;;;19.57;72.81;100605.06;5113990;28;20059;-80
2023/07/23 10:23:23;;;;;;;0.20;0.20;;;;;;;19.71;72.72;100612.25;5097565;28;20028;-81
2023/07/23 10:25:49;;;;;;;0.45;0.45;;;;;;;19.84;72.57;100615.09;5106082;28;20028;-81
2023/07/23 10:28:23;;;;;;;0.00;0.00;;;;;;;19.94;72.13;100612.66;5105824;28;20032;-81
2023/07/23 10:31:25;;;;;;;3.30;1.42;;;;;;;19.96;71.91;100614.31;5097038;28;20024;-81
2023/07/23 10:33:52;;;;;;;0.20;0.20;;;;;;;20.08;71.85;100614.50;5106203;28;20032;-81
2023/07/23 10:36:21;;;;;;;0.20;0.20;;;;;;;20.06;71.49;100619.94;5089803;28;20036;-80
2023/07/23 10:39:07;;;;;;;0.75;0.75;;;;;;;20.11;70.70;100611.59;5105197;28;20039;-80
2023/07/23 10:41:56;;;;;;;0.10;0.10;;;;;;;20.08;71.18;100625.25;5103509;28;20029;-81
2023/07/23 10:44:27;;;;;;;0.38;0.38;;;;;;;20.07;71.32;100607.38;5105104;28;20028;-80
2023/07/23 10:46:57;;;;;;;0.00;0.00;;;;;;;20.05;70.80;100615.56;5107001;28;20089;-80
2023/07/23 10:49:29;;;;;;;0.20;0.20;;;;;;;20.13;71.17;100615.91;5103912;28;20268;-80
2023/07/23 10:52:12;;;;;;;0.10;0.10;;;;;;;20.29;71.21;100609.56;5103305;28;20040;-80
2023/07/23 10:54:39;;;;;;;0.65;0.65;;;;;;;20.26;71.11;100610.63;5083006;28;20031;-79
2023/07/23 10:57:21;;;;;;;0.10;0.10;;;;;;;20.42;70.84;100609.63;5090835;28;20028;-80
2023/07/23 10:59:53;;;;;;;0.20;0.20;;;;;;;20.59;70.60;100605.84;5088608;28;20031;-79
2023/07/23 11:02:25;;;;;;;0.20;0.20;;;;;;;20.56;69.59;100617.69;5092464;28;20021;-79
2023/07/23 11:04:55;;;;;;;0.10;0.10;;;;;;;20.68;69.52;100603.38;5091927;28;20062;-80
2023/07/23 11:07:31;;;;;;;0.13;0.13;;;;;;;20.79;69.27;100609.94;5101454;28;20012;-80
2023/07/23 11:10:19;;;;;;;0.20;0.20;;;;;;;20.91;68.71;100611.81;5093702;28;20038;-79
2023/07/23 11:12:45;;;;;;;0.10;0.10;;;;;;;20.73;68.88;100613.88;5104954;28;20089;-79
2023/07/23 11:15:14;;;;;;;0.20;0.20;;;;;;;20.81;68.54;100605.28;5104072;28;20028;-78
2023/07/23 11:17:40;;;;;;;1.35;1.25;;;;;;;20.82;68.16;100617.78;5100437;28;20081;-78
2023/07/23 11:20:08;;;;;;;0.15;0.15;;;;;;;20.99;68.47;100613.97;5106981;28;20114;-79
2023/07/23 11:22:40;;;;;;;0.10;0.10;;;;;;;21.23;68.46;100607.88;5105588;28;20032;-79
2023/07/23 11:25:15;;;;;;;4.75;0.95;;;;;;;21.42;66.96;100596.69;5105432;28;20028;-79
2023/07/23 11:27:41;;;;;;;0.15;0.15;;;;;;;21.52;66.61;100611.25;5100478;28;20023;-81
2023/07/23 11:30:12;;;;;;;0.10;0.10;;;;;;;21.69;66.92;100607.38;5106501;28;20049;-80
2023/07/23 11:32:38;;;;;;;0.20;0.20;;;;;;;21.75;66.57;100608.81;5095256;28;20028;-79
2023/07/23 11:35:04;;;;;;;1.38;1.27;;;;;;;21.88;66.31;100601.56;5100168;28;20028;-79